createdAt,value
2022-12-11T00:00:12.012Z,1.08
2022-12-11T00:02:40.148Z,0.95
2022-12-11T00:05:09.111Z,0.90
2022-12-11T00:07:37.798Z,1.00
2022-12-11T00:10:06.836Z,0.68
2022-12-11T00:12:35.021Z,0.80
2022-12-11T00:15:03.515Z,1.00
2022-12-11T00:17:31.921Z,0.82
2022-12-11T00:20:00.280Z,0.80
2022-12-11T00:22:30.648Z,0.82
2022-12-11T00:24:58.951Z,0.85
2022-12-11T00:27:27.234Z,1.05
2022-12-11T00:29:55.472Z,1.00
2022-12-11T00:32:23.821Z,0.88
2022-12-11T00:34:52.107Z,0.80
2022-12-11T00:40:06.173Z,0.93
2022-12-11T00:42:34.374Z,1.08
2022-12-11T00:45:03.878Z,1.25
2022-12-11T00:47:51.043Z,0.98
2022-12-11T00:50:19.412Z,1.02
2022-12-11T00:52:47.770Z,1.05
2022-12-11T00:55:16.132Z,1.40
2022-12-11T00:57:44.413Z,1.00
2022-12-11T01:00:13.806Z,0.90
2022-12-11T01:02:42.031Z,1.27
2022-12-11T01:05:11.528Z,1.20
2022-12-11T01:07:58.714Z,1.65
2022-12-11T01:10:45.544Z,1.40
2022-12-11T01:13:13.744Z,1.52
2022-12-11T01:15:46.490Z,1.50
2022-12-11T01:18:16.278Z,1.52
2022-12-11T01:20:44.668Z,1.15
2022-12-11T01:23:14.149Z,1.30
2022-12-11T01:25:43.185Z,1.77
2022-12-11T01:28:11.674Z,1.20
2022-12-11T01:31:01.213Z,1.75
2022-12-11T01:33:48.423Z,1.13
2022-12-11T01:36:19.972Z,1.63
2022-12-11T01:39:07.016Z,1.50
2022-12-11T01:41:35.223Z,1.75
2022-12-11T01:44:28.291Z,1.92
2022-12-11T01:46:56.595Z,1.92
2022-12-11T01:49:27.489Z,2.00
2022-12-11T01:52:41.552Z,1.90
2022-12-11T01:55:10.745Z,1.73
2022-12-11T01:57:57.139Z,2.15
2022-12-11T02:00:25.448Z,2.20
2022-12-11T02:02:53.784Z,1.80
2022-12-11T02:05:59.374Z,1.40
2022-12-11T02:08:27.725Z,1.30
2022-12-11T02:11:17.774Z,1.25
2022-12-11T02:14:10.646Z,1.20
2022-12-11T02:17:05.451Z,1.42
2022-12-11T02:19:48.833Z,1.20
2022-12-11T02:22:54.402Z,1.00
2022-12-11T02:25:37.560Z,0.90
2022-12-11T02:28:32.169Z,1.10
2022-12-11T02:31:06.367Z,0.90
2022-12-11T02:33:46.182Z,0.70
2022-12-11T02:36:16.649Z,0.70
2022-12-11T02:38:50.911Z,0.90
2022-12-11T02:41:21.417Z,0.95
2022-12-11T02:43:51.103Z,0.70
2022-12-11T02:46:22.108Z,0.82
2022-12-11T02:48:52.007Z,0.80
2022-12-11T02:51:25.553Z,0.70
2022-12-11T02:53:57.863Z,0.60
2022-12-11T02:59:26.288Z,0.77
2022-12-11T03:01:54.752Z,1.05
2022-12-11T03:04:25.224Z,1.35
2022-12-11T03:07:32.275Z,0.60
2022-12-11T03:12:53.206Z,1.00
2022-12-11T03:15:31.823Z,0.85
2022-12-11T03:18:02.847Z,0.70
2022-12-11T03:20:45.391Z,0.80
2022-12-11T03:23:22.640Z,0.65
2022-12-11T03:25:55.897Z,0.70
2022-12-11T03:28:31.014Z,0.73
2022-12-11T03:31:27.603Z,0.45
2022-12-11T03:33:59.012Z,0.40
2022-12-11T03:36:48.197Z,0.80
2022-12-11T03:39:32.808Z,0.60
2022-12-11T03:42:03.937Z,0.88
2022-12-11T03:44:33.930Z,0.90
2022-12-11T03:47:04.543Z,0.70
2022-12-11T03:49:57.752Z,0.55
2022-12-11T03:52:28.432Z,0.52
2022-12-11T03:55:01.247Z,0.55
2022-12-11T03:57:48.957Z,0.40
2022-12-11T04:00:20.283Z,0.57
2022-12-11T04:03:13.619Z,0.70
2022-12-11T04:05:44.791Z,0.50
2022-12-11T04:08:13.139Z,0.57
2022-12-11T04:10:41.978Z,0.60
2022-12-11T04:13:11.552Z,0.52
2022-12-11T04:15:40.721Z,0.60
2022-12-11T04:21:51.638Z,0.70
2022-12-11T04:24:20.138Z,0.52
2022-12-11T04:27:06.909Z,0.38
2022-12-11T04:29:35.237Z,0.40
2022-12-11T04:32:03.387Z,0.57
2022-12-11T04:34:50.223Z,0.75
2022-12-11T04:37:18.372Z,0.47
2022-12-11T04:39:46.463Z,0.40
2022-12-11T04:42:14.639Z,0.70
2022-12-11T04:44:42.918Z,1.05
2022-12-11T04:47:11.359Z,0.43
2022-12-11T04:49:39.565Z,0.98
2022-12-11T04:52:07.820Z,0.28
2022-12-11T04:54:36.142Z,0.60
2022-12-11T04:57:04.412Z,0.70
2022-12-11T04:59:51.349Z,0.80
2022-12-11T05:02:41.357Z,1.00
2022-12-11T05:05:11.864Z,1.13
2022-12-11T05:07:41.265Z,0.85
2022-12-11T05:13:13.145Z,0.80
2022-12-11T05:16:00.764Z,0.82
2022-12-11T05:18:28.924Z,0.75
2022-12-11T05:20:58.815Z,0.80
2022-12-11T05:23:27.443Z,0.70
2022-12-11T05:28:47.850Z,0.60
2022-12-11T05:31:18.371Z,0.60
2022-12-11T05:33:48.119Z,0.70
2022-12-11T05:36:23.348Z,0.57
2022-12-11T05:38:52.631Z,0.70
2022-12-11T05:41:22.791Z,0.60
2022-12-11T05:43:51.844Z,0.70
2022-12-11T05:46:26.146Z,0.82
2022-12-11T05:49:13.416Z,0.70
2022-12-11T05:51:43.871Z,0.98
2022-12-11T05:54:13.618Z,0.80
2022-12-11T05:56:41.793Z,0.75
2022-12-11T05:59:10.275Z,0.73
2022-12-11T06:01:43.466Z,1.00
2022-12-11T06:04:12.611Z,0.70
2022-12-11T06:06:40.971Z,0.68
2022-12-11T06:11:54.285Z,0.60
2022-12-11T06:14:22.408Z,0.60
2022-12-11T06:16:50.789Z,0.80
2022-12-11T06:19:18.931Z,0.40
2022-12-11T06:21:49.170Z,0.60
2022-12-11T06:24:17.347Z,0.50
2022-12-11T06:26:45.480Z,0.75
2022-12-11T06:29:13.580Z,0.52
2022-12-11T06:31:41.868Z,0.77
2022-12-11T06:34:12.788Z,0.50
2022-12-11T06:36:41.028Z,0.43
2022-12-11T06:39:09.136Z,0.40
2022-12-11T06:41:37.330Z,0.50
2022-12-11T06:44:05.358Z,0.50
2022-12-11T06:46:33.485Z,0.82
2022-12-11T06:49:01.737Z,0.50
2022-12-11T06:51:29.729Z,0.50
2022-12-11T06:53:58.060Z,0.63
2022-12-11T06:56:26.236Z,0.70
2022-12-11T06:58:54.323Z,0.40
2022-12-11T07:01:25.020Z,0.40
2022-12-11T07:03:54.689Z,0.40
2022-12-11T07:06:23.491Z,0.38
2022-12-11T07:08:51.900Z,0.40
2022-12-11T07:11:21.038Z,0.50
2022-12-11T07:13:49.420Z,0.30
2022-12-11T07:19:03.319Z,0.20
2022-12-11T07:21:31.293Z,0.40
2022-12-11T07:23:59.576Z,0.40
2022-12-11T07:26:28.786Z,0.30
2022-12-11T07:29:00.696Z,0.22
2022-12-11T07:31:30.298Z,0.28
2022-12-11T07:34:03.395Z,0.35
2022-12-11T07:36:31.832Z,0.30
2022-12-11T07:39:01.634Z,0.32
2022-12-11T07:41:29.785Z,0.57
2022-12-11T07:44:00.604Z,0.55
2022-12-11T07:46:31.510Z,0.65
2022-12-11T07:49:01.177Z,0.30
2022-12-11T07:51:32.436Z,0.20
2022-12-11T07:54:02.889Z,0.30
2022-12-11T07:56:32.770Z,0.43
2022-12-11T07:59:03.049Z,0.30
2022-12-11T08:01:35.801Z,0.30
2022-12-11T08:04:06.425Z,0.20
2022-12-11T08:06:37.180Z,0.30
2022-12-11T08:09:08.553Z,0.55
2022-12-11T08:11:36.959Z,0.20
2022-12-11T08:14:06.967Z,0.28
2022-12-11T08:16:35.096Z,0.40
2022-12-11T08:21:48.265Z,0.20
2022-12-11T08:24:20.493Z,0.30
2022-12-11T08:26:49.403Z,0.20
2022-12-11T08:29:17.624Z,0.20
2022-12-11T08:31:45.780Z,0.38
2022-12-11T08:34:14.378Z,0.30
2022-12-11T08:36:44.192Z,0.20
2022-12-11T08:39:12.614Z,0.25
2022-12-11T08:41:41.114Z,0.30
2022-12-11T08:44:16.401Z,0.30
2022-12-11T08:46:46.472Z,0.40
2022-12-11T08:49:14.561Z,0.20
2022-12-11T08:51:42.650Z,0.20
2022-12-11T08:54:11.995Z,0.30
2022-12-11T08:56:40.054Z,0.30
2022-12-11T08:59:08.210Z,0.30
2022-12-11T09:01:36.388Z,0.30
2022-12-11T09:04:04.689Z,0.30
2022-12-11T09:06:33.770Z,0.60
2022-12-11T09:09:02.787Z,0.70
2022-12-11T09:11:33.968Z,1.00
2022-12-11T09:14:07.220Z,0.40
2022-12-11T09:16:41.196Z,0.50
2022-12-11T09:19:15.795Z,0.50
2022-12-11T09:21:44.417Z,0.40
2022-12-11T09:24:13.909Z,0.50
2022-12-11T09:26:42.493Z,0.77
2022-12-11T09:29:11.664Z,1.00
2022-12-11T09:31:40.426Z,1.00
2022-12-11T09:34:12.137Z,0.90
2022-12-11T09:36:42.348Z,0.65
2022-12-11T09:39:13.701Z,0.50
2022-12-11T09:42:24.362Z,0.57
2022-12-11T09:44:56.356Z,0.90
2022-12-11T09:47:36.391Z,0.70
2022-12-11T09:50:16.191Z,0.75
2022-12-11T09:53:09.716Z,0.98
2022-12-11T09:56:05.110Z,0.70
2022-12-11T09:58:47.517Z,0.95
2022-12-11T10:04:41.957Z,1.05
2022-12-11T10:07:49.023Z,1.20
2022-12-11T10:10:35.056Z,1.10
2022-12-11T10:13:39.931Z,1.35
2022-12-11T10:16:10.751Z,0.98
2022-12-11T10:21:09.996Z,2.10
2022-12-11T10:23:51.556Z,1.85
2022-12-11T10:26:22.088Z,1.60
2022-12-11T10:28:50.858Z,1.33
2022-12-11T10:31:50.705Z,1.20
2022-12-11T10:34:38.017Z,1.50
2022-12-11T10:37:06.123Z,1.80
2022-12-11T10:39:34.089Z,1.20
2022-12-11T10:42:16.393Z,1.40
2022-12-11T10:45:00.562Z,2.70
2022-12-11T10:47:29.632Z,1.70
2022-12-11T10:50:00.548Z,1.23
2022-12-11T10:55:23.193Z,1.33
2022-12-11T10:57:57.322Z,1.45
2022-12-11T11:00:39.536Z,1.35
2022-12-11T11:03:28.276Z,1.10
2022-12-11T11:06:15.624Z,1.73
2022-12-11T11:08:47.733Z,1.80
2022-12-11T11:11:21.776Z,1.50
2022-12-11T11:13:50.284Z,1.63
2022-12-11T11:16:21.507Z,1.33
2022-12-11T11:18:54.406Z,2.30
2022-12-11T11:21:24.842Z,2.20
2022-12-11T11:23:54.603Z,1.88
2022-12-11T11:26:23.528Z,1.70
2022-12-11T11:28:54.469Z,1.40
2022-12-11T11:31:33.246Z,1.55
2022-12-11T11:34:05.781Z,0.98
2022-12-11T11:36:36.498Z,1.50
2022-12-11T11:39:48.741Z,1.20
2022-12-11T11:42:27.999Z,1.30
2022-12-11T11:45:27.003Z,1.38
2022-12-11T11:48:17.664Z,1.25
2022-12-11T11:50:50.771Z,1.10
2022-12-11T11:53:41.714Z,1.10
2022-12-11T11:56:12.344Z,0.60
2022-12-11T11:59:12.954Z,1.20
2022-12-11T12:01:44.196Z,0.98
2022-12-11T12:04:12.587Z,0.80
2022-12-11T12:06:48.969Z,0.80
2022-12-11T12:09:45.088Z,1.48
2022-12-11T12:12:31.010Z,0.80
2022-12-11T12:15:40.185Z,0.98
2022-12-11T12:18:32.934Z,0.93
2022-12-11T12:21:10.062Z,0.95
2022-12-11T12:26:33.244Z,1.30
2022-12-11T12:29:42.667Z,1.17
2022-12-11T12:32:28.214Z,1.10
2022-12-11T12:35:10.852Z,0.88
2022-12-11T12:37:48.217Z,0.73
2022-12-11T12:43:52.044Z,0.82
2022-12-11T12:46:34.549Z,0.88
2022-12-11T12:49:04.522Z,0.68
2022-12-11T12:51:32.681Z,0.73
2022-12-11T12:54:06.564Z,1.17
2022-12-11T12:59:28.203Z,0.98
2022-12-11T13:02:01.415Z,0.73
2022-12-11T13:04:55.042Z,0.75
2022-12-11T13:07:30.205Z,0.55
2022-12-11T13:10:25.059Z,1.00
2022-12-11T13:12:53.633Z,0.90
2022-12-11T13:15:32.694Z,1.02
2022-12-11T13:18:03.761Z,0.80
2022-12-11T13:20:34.005Z,0.70
2022-12-11T13:26:01.612Z,0.63
2022-12-11T13:28:47.834Z,1.00
2022-12-11T13:31:15.980Z,0.80
2022-12-11T13:33:53.783Z,0.73
2022-12-11T13:36:24.824Z,0.85
2022-12-11T13:38:57.375Z,0.73
2022-12-11T13:41:25.704Z,0.77
2022-12-11T13:43:54.215Z,1.10
2022-12-11T13:46:30.182Z,1.13
2022-12-11T13:49:09.001Z,1.00
2022-12-11T13:51:38.129Z,0.82
2022-12-11T13:54:19.339Z,1.17
2022-12-11T13:57:08.948Z,1.27
2022-12-11T13:59:41.863Z,1.30
2022-12-11T14:02:33.021Z,1.23
2022-12-11T14:05:08.702Z,0.85
2022-12-11T14:07:46.900Z,0.90
2022-12-11T14:10:14.979Z,1.30
2022-12-11T14:13:03.318Z,1.10
2022-12-11T14:15:33.392Z,1.35
2022-12-11T14:18:01.918Z,1.02
2022-12-11T14:20:32.819Z,1.23
2022-12-11T14:23:21.858Z,1.85
2022-12-11T14:25:57.681Z,1.45
2022-12-11T14:28:28.082Z,1.70
2022-12-11T14:31:00.031Z,2.72
2022-12-11T14:33:34.324Z,2.50
2022-12-11T14:36:03.274Z,1.20
2022-12-11T14:38:36.974Z,1.48
2022-12-11T14:41:32.587Z,1.30
2022-12-11T14:44:03.982Z,1.38
2022-12-11T14:46:46.871Z,1.38
2022-12-11T14:49:34.772Z,1.65
2022-12-11T14:52:04.308Z,1.35
2022-12-11T14:54:40.617Z,2.08
2022-12-11T14:57:16.896Z,1.20
2022-12-11T14:59:47.365Z,1.60
2022-12-11T15:02:36.670Z,1.52
2022-12-11T15:08:00.524Z,1.20
2022-12-11T15:11:04.978Z,1.13
2022-12-11T15:13:34.624Z,1.45
2022-12-11T15:16:04.239Z,1.20
2022-12-11T15:18:35.650Z,2.15
2022-12-11T15:23:46.815Z,1.35
2022-12-11T15:26:15.020Z,1.60
2022-12-11T15:28:43.379Z,1.55
2022-12-11T15:31:29.981Z,1.50
2022-12-11T15:33:58.301Z,1.20
2022-12-11T15:36:37.693Z,1.20
2022-12-11T15:39:08.873Z,1.40
2022-12-11T15:41:37.061Z,1.85
2022-12-11T15:44:05.398Z,1.42
2022-12-11T15:46:36.859Z,1.77
2022-12-11T15:51:42.636Z,1.65
2022-12-11T15:54:11.427Z,1.42
2022-12-11T15:56:40.248Z,1.65
2022-12-11T15:59:08.528Z,1.63
2022-12-11T16:01:36.584Z,1.98
2022-12-11T16:04:05.355Z,1.50
2022-12-11T16:06:34.486Z,1.77
2022-12-11T16:09:04.385Z,2.00
2022-12-11T16:11:32.495Z,1.25
2022-12-11T16:14:04.657Z,1.67
2022-12-11T16:16:35.334Z,2.30
2022-12-11T16:19:03.430Z,1.80
2022-12-11T16:21:31.532Z,1.60
2022-12-11T16:23:59.586Z,1.55
2022-12-11T16:26:27.836Z,1.52
2022-12-11T16:28:56.006Z,1.95
2022-12-11T16:31:24.143Z,2.20
2022-12-11T16:33:52.314Z,2.38
2022-12-11T16:36:21.043Z,1.65
2022-12-11T16:38:53.789Z,2.13
2022-12-11T16:41:23.376Z,2.03
2022-12-11T16:43:52.087Z,2.22
2022-12-11T16:46:24.524Z,2.88
2022-12-11T16:48:52.653Z,3.20
2022-12-11T16:51:20.698Z,2.50
2022-12-11T16:53:48.814Z,2.35
2022-12-11T16:56:16.883Z,1.85
2022-12-11T16:58:44.981Z,2.35
2022-12-11T17:01:31.799Z,1.92
2022-12-11T17:04:00.607Z,2.00
2022-12-11T17:06:29.403Z,2.75
2022-12-11T17:08:57.984Z,1.58
2022-12-11T17:11:26.497Z,2.38
2022-12-11T17:19:11.799Z,1.88
2022-12-11T17:21:40.072Z,2.00
2022-12-11T17:24:09.078Z,2.47
2022-12-11T17:26:37.440Z,1.90
2022-12-11T17:29:05.542Z,2.08
2022-12-11T17:31:33.707Z,2.08
2022-12-11T17:34:02.010Z,2.00
2022-12-11T17:36:30.734Z,2.85
2022-12-11T17:38:58.907Z,2.30
2022-12-11T17:41:27.074Z,2.50
2022-12-11T17:43:56.033Z,2.33
2022-12-11T17:46:24.319Z,2.13
2022-12-11T17:51:38.024Z,1.70
2022-12-11T17:54:06.098Z,1.75
2022-12-11T17:56:36.410Z,2.42
2022-12-11T17:59:05.032Z,2.03
2022-12-11T18:01:51.814Z,2.13
2022-12-11T18:04:19.954Z,2.22
2022-12-11T18:06:48.318Z,2.10
2022-12-11T18:09:16.463Z,2.08
2022-12-11T18:11:44.567Z,2.20
2022-12-11T18:14:17.192Z,2.70
2022-12-11T18:16:45.724Z,2.42
2022-12-11T18:19:14.532Z,3.10
2022-12-11T18:21:45.952Z,2.22
2022-12-11T18:24:32.414Z,2.38
2022-12-11T18:27:00.491Z,2.75
2022-12-11T18:29:29.004Z,2.65
2022-12-11T18:31:57.269Z,4.03
2022-12-11T18:34:25.365Z,2.28
2022-12-11T18:36:53.414Z,2.15
2022-12-11T18:39:21.459Z,2.10
2022-12-11T18:42:03.500Z,1.85
2022-12-11T18:44:37.939Z,1.98
2022-12-11T18:47:07.393Z,1.95
2022-12-11T18:49:36.642Z,2.10
2022-12-11T18:52:05.017Z,2.15
2022-12-11T18:54:33.468Z,2.03
2022-12-11T18:57:01.504Z,1.30
2022-12-11T18:59:29.564Z,0.90
2022-12-11T19:04:43.022Z,1.23
2022-12-11T19:07:11.226Z,1.10
2022-12-11T19:09:57.899Z,1.30
2022-12-11T19:12:26.044Z,1.00
2022-12-11T19:14:54.849Z,1.00
2022-12-11T19:17:22.937Z,0.80
2022-12-11T19:19:51.024Z,1.33
2022-12-11T19:22:19.127Z,1.05
2022-12-11T19:24:47.252Z,0.60
2022-12-11T19:27:15.390Z,0.60
2022-12-11T19:29:43.598Z,0.80
2022-12-11T19:32:11.756Z,0.50
2022-12-11T19:34:40.155Z,0.85
2022-12-11T19:37:08.324Z,0.60
2022-12-11T19:39:39.354Z,0.90
2022-12-11T19:42:07.416Z,0.88
2022-12-11T19:44:35.964Z,0.80
2022-12-11T19:47:04.125Z,0.85
2022-12-11T19:49:32.454Z,0.82
2022-12-11T19:52:00.446Z,0.70
2022-12-11T19:54:28.468Z,0.60
2022-12-11T19:56:56.730Z,0.50
2022-12-11T19:59:25.069Z,0.77
2022-12-11T20:01:53.342Z,0.70
2022-12-11T20:04:40.377Z,0.75
2022-12-11T20:07:08.805Z,1.65
2022-12-11T20:09:36.907Z,1.40
2022-12-11T20:12:10.515Z,1.20
2022-12-11T20:14:39.180Z,3.05
2022-12-11T20:17:12.967Z,3.63
2022-12-11T20:19:42.962Z,4.22
2022-12-11T20:22:11.421Z,4.82
2022-12-11T20:24:58.358Z,6.80
2022-12-11T20:27:44.858Z,6.18
2022-12-11T20:30:14.109Z,6.95
2022-12-11T20:33:00.744Z,7.90
2022-12-11T20:35:28.996Z,8.57
2022-12-11T20:37:56.954Z,5.70
2022-12-11T20:40:25.618Z,7.40
2022-12-11T20:42:53.689Z,5.82
2022-12-11T20:45:21.858Z,6.07
2022-12-11T20:47:50.131Z,6.70
2022-12-11T20:50:18.268Z,6.50
2022-12-11T20:52:46.316Z,6.25
2022-12-11T20:55:15.165Z,5.70
2022-12-11T20:57:45.207Z,5.38
2022-12-11T21:00:14.996Z,5.05
2022-12-11T21:02:43.206Z,4.07
2022-12-11T21:05:11.697Z,4.15
2022-12-11T21:07:40.169Z,5.20
2022-12-11T21:10:09.066Z,3.90
2022-12-11T21:12:38.538Z,3.42
2022-12-11T21:15:07.338Z,2.90
2022-12-11T21:17:35.553Z,2.40
2022-12-11T21:20:04.575Z,1.63
2022-12-11T21:22:32.740Z,1.67
2022-12-11T21:25:01.020Z,1.23
2022-12-11T21:27:29.349Z,1.20
2022-12-11T21:29:57.701Z,1.60
2022-12-11T21:32:27.674Z,1.48
2022-12-11T21:34:57.262Z,1.20
2022-12-11T21:37:25.463Z,0.90
2022-12-11T21:39:57.353Z,1.00
2022-12-11T21:42:26.198Z,1.00
2022-12-11T21:47:42.864Z,1.20
2022-12-11T21:50:11.181Z,1.30
2022-12-11T21:52:39.609Z,1.20
2022-12-11T21:55:08.339Z,1.23
2022-12-11T21:57:55.559Z,1.90
2022-12-11T22:00:23.826Z,1.95
2022-12-11T22:02:51.931Z,1.55
2022-12-11T22:05:20.190Z,1.40
2022-12-11T22:07:48.633Z,1.40
2022-12-11T22:10:17.046Z,1.30
2022-12-11T22:12:45.357Z,1.50
2022-12-11T22:15:13.887Z,1.25
2022-12-11T22:17:42.270Z,1.77
2022-12-11T22:20:11.845Z,2.75
2022-12-11T22:22:40.108Z,2.80
2022-12-11T22:25:08.633Z,2.92
2022-12-11T22:27:55.439Z,2.75
2022-12-11T22:30:23.697Z,2.35
2022-12-11T22:32:51.945Z,2.22
2022-12-11T22:35:25.513Z,2.22
2022-12-11T22:38:13.732Z,2.03
2022-12-11T22:40:42.583Z,2.17
2022-12-11T22:43:10.853Z,2.63
2022-12-11T22:45:40.631Z,2.38
2022-12-11T22:48:27.812Z,2.20
2022-12-11T22:50:56.158Z,2.30
2022-12-11T22:53:24.442Z,1.90
2022-12-11T22:55:53.163Z,2.10
2022-12-11T22:58:39.944Z,1.58
2022-12-11T23:01:13.761Z,1.33
2022-12-11T23:03:42.209Z,1.20
2022-12-11T23:06:13.570Z,1.00
2022-12-11T23:08:42.663Z,1.35
2022-12-11T23:11:15.361Z,1.50
2022-12-11T23:13:43.929Z,1.63
2022-12-11T23:16:12.834Z,2.35
2022-12-11T23:18:41.482Z,1.73
2022-12-11T23:21:30.001Z,1.80
2022-12-11T23:23:59.041Z,1.30
2022-12-11T23:26:28.887Z,1.60
2022-12-11T23:28:59.050Z,1.02
2022-12-11T23:31:27.651Z,0.93
2022-12-11T23:34:14.892Z,0.80
2022-12-11T23:36:43.181Z,0.88
2022-12-11T23:39:11.654Z,1.30
2022-12-11T23:41:39.961Z,1.30
2022-12-11T23:44:09.531Z,0.95
2022-12-11T23:46:56.167Z,0.88
2022-12-11T23:49:24.478Z,0.93
2022-12-11T23:51:52.690Z,0.70
2022-12-11T23:54:20.900Z,0.90
2022-12-11T23:56:49.181Z,1.10
2022-12-11T23:59:36.355Z,0.70
